Metar

!!! Benutzen Sie für Ihre Flugvorbereitung die offiziellen Quellen !!!

Metar:

EDQM 211650Z 35006KT 320V050 CAVOK 24/10 Q1022

QNH: 1022
Temperatur: 24
Dew Point : 10

 

METAR (decoded)